Time;durP1;ratioP1;P1;durP2;ratioP2;P2;SDS_P1;SDS_P2;PMS_P1;PMS_P2;Temp;Humidity;BMP_temperature;BMP_pressure;BME280_temperature;BME280_humidity;BME280_pressure;Samples;Min_cycle;Max_cycle;Signal;HPM_P1;HPM_P2
2022/07/14 00:00:54;;;;;;;14.45;3.80;;;;;;;20.11;68.96;101989.53;4976786;28;20050;-50
2022/07/14 00:03:22;;;;;;;16.83;3.67;;;;;;;20.13;68.67;101982.56;4958449;28;20088;-54
2022/07/14 00:05:50;;;;;;;15.43;3.80;;;;;;;20.12;68.82;101991.97;4972869;28;20054;-51
2022/07/14 00:08:18;;;;;;;15.57;3.75;;;;;;;20.14;68.56;101992.50;4958171;28;20048;-54
2022/07/14 00:10:46;;;;;;;13.40;4.00;;;;;;;20.08;69.06;101990.13;4976080;28;20039;-51
2022/07/14 00:13:14;;;;;;;14.82;3.90;;;;;;;20.04;69.32;101989.91;4976894;28;20536;-49
2022/07/14 00:15:41;;;;;;;15.07;3.78;;;;;;;20.07;69.10;101991.25;4972893;28;20039;-51
2022/07/14 00:18:09;;;;;;;16.08;3.80;;;;;;;20.08;69.01;101984.56;4976348;28;20401;-53
2022/07/14 00:20:37;;;;;;;16.95;3.65;;;;;;;20.04;69.25;101989.09;4976743;28;20042;-51
2022/07/14 00:23:05;;;;;;;14.75;3.90;;;;;;;19.89;69.70;101977.19;4969655;28;20054;-52
2022/07/14 00:25:32;;;;;;;17.67;3.88;;;;;;;19.80;70.33;101978.97;4976243;28;20042;-53
2022/07/14 00:28:00;;;;;;;14.77;4.07;;;;;;;19.84;70.13;101990.25;4971876;28;20054;-51
2022/07/14 00:30:28;;;;;;;12.02;3.35;;;;;;;19.81;70.38;101986.16;4957761;28;20498;-49
2022/07/14 00:32:55;;;;;;;16.13;3.60;;;;;;;19.85;70.31;101984.44;4975590;28;20051;-55
2022/07/14 00:35:23;;;;;;;14.63;3.97;;;;;;;19.87;70.40;101979.41;4957503;28;20093;-55
2022/07/14 00:37:51;;;;;;;16.20;4.10;;;;;;;19.69;70.54;101967.25;4975859;28;20121;-50
2022/07/14 00:40:18;;;;;;;11.65;3.53;;;;;;;19.62;71.33;101971.50;4974116;28;20051;-49
2022/07/14 00:42:47;;;;;;;13.98;4.10;;;;;;;19.54;71.62;101965.53;4959100;28;20090;-52
2022/07/14 00:45:20;;;;;;;15.60;3.42;;;;;;;19.55;71.73;101961.66;4961064;28;20502;-52
2022/07/14 00:47:48;;;;;;;13.43;3.78;;;;;;;19.62;71.49;101965.97;4970466;28;20053;-49
2022/07/14 00:50:18;;;;;;;15.45;4.03;;;;;;;19.61;71.55;101975.41;4948945;29;20043;-53
2022/07/14 00:52:47;;;;;;;17.23;3.92;;;;;;;19.64;71.43;101972.03;4973944;28;20046;-50
2022/07/14 00:55:16;;;;;;;13.40;3.70;;;;;;;19.70;70.87;101968.06;4952353;28;20078;-49
2022/07/14 00:57:46;;;;;;;16.88;3.90;;;;;;;19.68;70.53;101975.88;4937977;29;20047;-52
2022/07/14 01:00:15;;;;;;;18.25;4.30;;;;;;;19.62;71.21;101968.75;4940931;28;20046;-54
2022/07/14 01:02:43;;;;;;;17.33;4.15;;;;;;;19.62;71.37;101971.50;4976164;28;20047;-50
2022/07/14 01:05:11;;;;;;;15.23;3.15;;;;;;;19.65;70.97;101976.41;4974551;28;20097;-52
2022/07/14 01:07:39;;;;;;;15.40;4.35;;;;;;;19.55;71.27;101975.50;4954684;28;20050;-49
2022/07/14 01:10:07;;;;;;;17.17;4.38;;;;;;;19.45;71.71;101977.56;4971753;28;20462;-52
2022/07/14 01:12:34;;;;;;;17.40;4.88;;;;;;;19.43;71.68;101980.63;4965227;28;20043;-48
2022/07/14 01:15:02;;;;;;;14.52;3.88;;;;;;;19.47;71.67;101989.97;4952017;28;20057;-50
2022/07/14 01:17:31;;;;;;;17.58;4.07;;;;;;;19.48;71.52;101994.41;4958282;28;20038;-51
2022/07/14 01:19:59;;;;;;;10.35;3.50;;;;;;;19.49;71.46;101996.03;4941927;28;20134;-49
2022/07/14 01:22:27;;;;;;;15.38;4.05;;;;;;;19.44;71.72;101998.88;4962551;28;20046;-50
2022/07/14 01:24:55;;;;;;;13.68;3.97;;;;;;;19.43;71.72;101997.22;4973922;28;20069;-48
2022/07/14 01:27:23;;;;;;;14.77;3.88;;;;;;;19.45;71.55;101986.69;4966409;28;20580;-49
2022/07/14 01:29:50;;;;;;;13.48;3.65;;;;;;;19.44;71.49;101998.88;4956290;28;20050;-48
2022/07/14 01:32:18;;;;;;;14.05;3.83;;;;;;;19.45;71.52;102003.25;4972689;28;20071;-47
2022/07/14 01:34:47;;;;;;;13.93;3.80;;;;;;;19.39;71.78;102012.78;4957986;28;20046;-47
2022/07/14 01:37:14;;;;;;;14.13;3.30;;;;;;;19.36;72.02;102013.34;4962045;28;20059;-47
2022/07/14 01:39:43;;;;;;;17.33;3.88;;;;;;;19.32;71.92;102012.31;4970490;28;20406;-50
2022/07/14 01:42:11;;;;;;;13.52;3.72;;;;;;;19.25;72.11;102006.34;4957260;28;20042;-51
2022/07/14 01:44:39;;;;;;;12.82;3.70;;;;;;;19.22;72.38;102017.97;4957808;28;20045;-49
2022/07/14 01:47:07;;;;;;;15.75;3.85;;;;;;;19.20;72.32;102009.19;4947360;29;20086;-50
2022/07/14 01:49:35;;;;;;;16.40;4.05;;;;;;;19.04;73.14;102001.09;4955207;28;20067;-50
2022/07/14 01:52:07;;;;;;;17.17;4.10;;;;;;;19.06;73.45;101998.03;4953738;29;20130;-50
2022/07/14 01:54:37;;;;;;;14.02;3.70;;;;;;;19.06;73.25;102000.78;4933974;28;20443;-49
2022/07/14 01:57:08;;;;;;;14.75;3.60;;;;;;;19.06;73.30;102004.38;4951444;29;20039;-51
2022/07/14 01:59:37;;;;;;;10.73;3.40;;;;;;;18.98;73.58;101999.53;4954856;28;20126;-49
2022/07/14 02:02:04;;;;;;;14.93;4.28;;;;;;;18.99;73.70;102001.16;4941548;28;20106;-49
2022/07/14 02:04:32;;;;;;;16.75;3.88;;;;;;;18.91;73.30;101990.78;4970790;28;20035;-51
2022/07/14 02:07:00;;;;;;;14.88;3.90;;;;;;;18.70;74.63;101993.75;4973520;28;20410;-50
2022/07/14 02:12:41;;;;;;;14.57;4.40;;;;;;;18.81;74.13;101986.19;4932850;28;20134;-53
2022/07/14 02:15:11;;;;;;;15.98;4.05;;;;;;;18.58;75.12;101993.34;4950191;28;20122;-54
2022/07/14 02:17:39;;;;;;;15.75;4.47;;;;;;;18.57;75.39;101990.84;4955843;28;20078;-54
2022/07/14 02:20:09;;;;;;;12.60;4.15;;;;;;;18.54;75.37;101989.50;4974476;28;20094;-52
2022/07/14 02:22:36;;;;;;;13.55;3.67;;;;;;;18.58;75.28;101981.47;4951009;28;20064;-55
2022/07/14 02:25:04;;;;;;;14.80;4.05;;;;;;;18.57;75.06;101983.41;4974188;28;20050;-51
2022/07/14 02:27:32;;;;;;;12.63;3.70;;;;;;;18.50;75.02;101982.94;4957486;28;20410;-52
2022/07/14 02:29:59;;;;;;;14.45;4.25;;;;;;;18.53;74.97;101993.41;4972572;28;20050;-49
2022/07/14 02:32:31;;;;;;;14.80;4.20;;;;;;;18.51;75.03;101987.34;4963123;28;20072;-51
2022/07/14 02:34:58;;;;;;;17.80;4.13;;;;;;;18.53;74.88;101991.44;4973652;28;20047;-50
2022/07/14 02:37:26;;;;;;;15.23;3.95;;;;;;;18.57;74.85;101977.91;4974384;28;20068;-54
2022/07/14 02:39:53;;;;;;;14.75;4.05;;;;;;;18.58;74.26;101993.34;4972767;28;20513;-51
2022/07/14 02:42:21;;;;;;;16.17;3.75;;;;;;;18.50;74.82;101996.75;4943489;28;20093;-54
2022/07/14 02:44:49;;;;;;;18.33;4.35;;;;;;;18.53;74.81;101993.41;4953292;28;20393;-51
2022/07/14 02:47:16;;;;;;;13.23;3.88;;;;;;;18.61;74.26;101998.25;4974463;28;20051;-51
2022/07/14 02:49:44;;;;;;;16.05;4.25;;;;;;;18.54;74.14;101992.28;4954261;28;20047;-53
2022/07/14 02:52:13;;;;;;;14.60;3.40;;;;;;;18.48;74.85;101993.47;4950672;28;20035;-53
2022/07/14 02:54:44;;;;;;;18.20;4.55;;;;;;;18.52;74.62;101991.78;4948081;28;20031;-49
2022/07/14 02:57:12;;;;;;;23.70;4.47;;;;;;;18.52;74.40;101991.78;4956750;28;20047;-51
2022/07/14 02:59:42;;;;;;;17.77;4.45;;;;;;;18.52;74.42;101989.00;4953021;28;20047;-49
2022/07/14 03:02:10;;;;;;;17.70;4.25;;;;;;;18.45;74.23;101983.00;4931167;28;20098;-51
2022/07/14 03:04:38;;;;;;;15.73;4.20;;;;;;;18.42;74.46;101978.88;4953537;28;20504;-51
2022/07/14 03:07:05;;;;;;;17.25;4.22;;;;;;;18.40;74.44;101980.28;4956831;28;20133;-54
2022/07/14 03:09:33;;;;;;;13.15;3.90;;;;;;;18.35;75.06;101977.59;4948000;28;20031;-53
2022/07/14 03:12:04;;;;;;;16.95;4.68;;;;;;;18.22;74.92;101971.66;4951824;28;20050;-52
2022/07/14 03:14:35;;;;;;;12.77;3.95;;;;;;;18.15;75.91;101967.59;4955071;28;20046;-51
2022/07/14 03:17:03;;;;;;;13.00;3.65;;;;;;;18.15;75.74;101962.88;4956508;28;20105;-51
2022/07/14 03:19:30;;;;;;;14.45;4.03;;;;;;;18.14;75.25;101958.50;4954624;28;20043;-52
2022/07/14 03:21:59;;;;;;;14.18;4.15;;;;;;;18.05;75.78;101958.31;4942052;29;20091;-50
2022/07/14 03:24:27;;;;;;;13.40;4.20;;;;;;;18.03;75.95;101951.44;4945736;28;20043;-51
2022/07/14 03:26:54;;;;;;;13.05;3.83;;;;;;;17.97;75.62;101953.44;4951846;28;20043;-52
2022/07/14 03:29:23;;;;;;;14.73;3.95;;;;;;;17.87;76.05;101950.75;4956522;28;20553;-52
2022/07/14 03:31:51;;;;;;;19.98;3.85;;;;;;;17.81;76.72;101946.41;4945555;28;20052;-51
2022/07/14 03:34:18;;;;;;;15.15;3.53;;;;;;;17.83;76.49;101939.47;4960215;28;20058;-53
2022/07/14 03:36:47;;;;;;;12.90;3.58;;;;;;;17.86;76.39;101944.41;4957195;28;20572;-52
2022/07/14 03:39:23;;;;;;;14.73;3.45;;;;;;;17.98;75.92;101945.97;4960040;28;20409;-50
2022/07/14 03:41:52;;;;;;;12.57;3.50;;;;;;;18.01;75.24;101946.19;4953571;28;20498;-51
2022/07/14 03:44:19;;;;;;;13.70;3.47;;;;;;;17.87;75.46;101956.25;4977328;28;20105;-53
2022/07/14 03:46:47;;;;;;;13.45;3.72;;;;;;;17.75;76.66;101955.78;4958754;28;20047;-50
2022/07/14 03:49:18;;;;;;;15.13;3.88;;;;;;;17.79;76.51;101965.13;4960170;28;20066;-49
2022/07/14 03:51:47;;;;;;;16.13;4.00;;;;;;;17.83;76.26;101966.25;4939084;28;20049;-49
2022/07/14 03:54:20;;;;;;;14.73;4.03;;;;;;;17.80;76.47;101975.06;4960071;28;20042;-51
2022/07/14 03:56:48;;;;;;;16.98;4.43;;;;;;;17.77;75.89;101962.66;4951457;29;20494;-51
2022/07/14 03:59:18;;;;;;;16.02;3.65;;;;;;;17.70;76.61;101973.19;4939817;28;20043;-49
2022/07/14 04:01:46;;;;;;;15.00;3.85;;;;;;;17.70;76.16;101964.09;4958571;28;20485;-49
2022/07/14 04:04:14;;;;;;;18.13;4.43;;;;;;;17.70;76.47;101959.41;4955851;28;20101;-51
2022/07/14 04:06:44;;;;;;;11.48;3.28;;;;;;;17.73;76.07;101958.84;4952799;28;20042;-51
2022/07/14 04:09:11;;;;;;;17.10;3.83;;;;;;;17.62;76.58;101949.81;4959536;28;20367;-49
2022/07/14 04:11:44;;;;;;;17.02;4.13;;;;;;;17.51;76.66;101947.44;4959111;28;20086;-53
2022/07/14 04:14:12;;;;;;;16.13;3.83;;;;;;;17.18;78.30;101955.38;4956148;29;20438;-53
2022/07/14 04:16:40;;;;;;;20.58;4.65;;;;;;;17.08;79.55;101948.00;4957310;28;20454;-48
2022/07/14 04:19:08;;;;;;;12.07;3.65;;;;;;;17.04;79.22;101944.19;4971071;28;20093;-49
2022/07/14 04:21:39;;;;;;;13.18;3.70;;;;;;;17.02;79.54;101952.72;4959232;28;20046;-53
2022/07/14 04:24:07;;;;;;;13.55;3.78;;;;;;;16.99;80.24;101958.78;4959431;28;20035;-52
2022/07/14 04:26:37;;;;;;;13.75;3.75;;;;;;;17.16;80.14;101954.84;4957341;28;20061;-51
2022/07/14 04:29:06;;;;;;;13.20;4.10;;;;;;;17.24;79.15;101959.75;4946284;28;20418;-48
2022/07/14 04:31:34;;;;;;;15.32;3.47;;;;;;;17.31;78.90;101962.19;4939749;29;20066;-47
2022/07/14 04:34:04;;;;;;;17.88;4.15;;;;;;;17.50;78.35;101956.81;4936623;29;20059;-48
2022/07/14 04:36:33;;;;;;;11.50;3.45;;;;;;;17.55;77.69;101954.03;4947024;29;20119;-49
2022/07/14 04:39:04;;;;;;;13.73;3.47;;;;;;;17.65;77.49;101960.28;4955428;29;20509;-47
2022/07/14 04:41:39;;;;;;;15.93;3.63;;;;;;;17.77;76.80;101962.66;4943832;29;20128;-50
2022/07/14 04:44:06;;;;;;;17.05;4.35;;;;;;;17.80;76.30;101961.28;4954693;29;20051;-48
2022/07/14 04:46:35;;;;;;;16.02;4.18;;;;;;;17.79;76.60;101960.44;4952249;29;20043;-49
2022/07/14 04:52:03;;;;;;;14.63;3.55;;;;;;;17.72;76.61;101967.41;4955489;29;20039;-52
2022/07/14 04:54:45;;;;;;;12.13;4.40;;;;;;;17.57;77.28;101968.34;4946031;29;20052;-49
2022/07/14 04:57:32;;;;;;;14.77;4.10;;;;;;;17.42;78.31;101967.34;4943970;29;20035;-49
2022/07/14 05:00:02;;;;;;;10.68;3.60;;;;;;;17.50;78.65;101968.66;4939601;29;20079;-47
2022/07/14 05:02:31;;;;;;;13.70;3.92;;;;;;;17.59;78.24;101974.41;4954930;29;20070;-46
2022/07/14 05:04:59;;;;;;;14.38;3.80;;;;;;;17.66;77.60;101972.94;4937817;29;20031;-47
2022/07/14 05:07:27;;;;;;;14.02;3.72;;;;;;;17.73;77.13;101974.56;4950071;29;20055;-46
2022/07/14 05:09:57;;;;;;;12.23;3.90;;;;;;;17.76;76.65;101973.97;4946820;29;20043;-46
2022/07/14 05:12:27;;;;;;;12.00;3.40;;;;;;;17.74;76.68;101974.25;4269637;28;9999987;-49
2022/07/14 05:14:57;;;;;;;12.60;3.72;;;;;;;17.79;76.63;101967.88;4950745;29;20053;-48
2022/07/14 05:17:25;;;;;;;16.23;3.97;;;;;;;17.77;76.21;101976.44;4940809;29;20094;-51
2022/07/14 05:20:09;;;;;;;13.52;4.03;;;;;;;17.66;76.98;101981.22;4951506;29;20126;-48
2022/07/14 05:22:41;;;;;;;14.70;3.85;;;;;;;17.63;76.99;101969.94;4953002;29;20487;-50
2022/07/14 05:25:13;;;;;;;15.90;3.90;;;;;;;17.66;76.52;101967.44;4943324;29;20040;-49
2022/07/14 05:27:41;;;;;;;12.45;3.88;;;;;;;17.76;75.95;101960.19;4932472;29;20303;-48
2022/07/14 05:30:36;;;;;;;15.38;4.35;;;;;;;17.80;75.18;101964.88;4948119;29;20142;-49
2022/07/14 05:33:03;;;;;;;14.85;3.88;;;;;;;17.79;75.37;101968.69;4947532;28;20051;-48
2022/07/14 05:35:32;;;;;;;14.70;3.83;;;;;;;17.76;75.29;101969.28;4937203;28;20090;-50
2022/07/14 05:38:01;;;;;;;11.98;3.72;;;;;;;17.77;75.51;101979.19;4953807;29;20426;-50
2022/07/14 05:40:36;;;;;;;13.35;3.70;;;;;;;17.84;75.56;101976.97;4947091;29;20094;-49
2022/07/14 05:43:06;;;;;;;16.73;3.80;;;;;;;17.88;74.98;101986.31;4950360;28;20035;-47
2022/07/14 05:45:34;;;;;;;11.88;3.80;;;;;;;17.88;75.12;101979.97;4969511;28;20399;-52
2022/07/14 05:48:02;;;;;;;15.30;3.95;;;;;;;17.86;75.78;101983.00;4972223;28;20412;-52
2022/07/14 05:50:29;;;;;;;13.45;3.47;;;;;;;17.88;75.42;101986.31;4957499;28;20058;-51
2022/07/14 05:52:57;;;;;;;13.25;3.58;;;;;;;17.85;75.12;101986.91;4956971;28;20069;-47
2022/07/14 05:55:25;;;;;;;13.13;4.20;;;;;;;17.85;75.43;101975.06;4940690;28;20101;-51
2022/07/14 05:57:54;;;;;;;12.32;3.25;;;;;;;17.88;74.93;101983.53;4957141;28;20039;-47
2022/07/14 06:00:22;;;;;;;15.68;3.78;;;;;;;17.91;74.72;101979.38;4937931;29;20028;-52
2022/07/14 06:02:51;;;;;;;14.40;3.53;;;;;;;17.92;74.50;101994.00;4955796;28;20048;-52
2022/07/14 06:05:26;;;;;;;12.40;3.53;;;;;;;17.95;74.38;101985.97;4953512;29;20045;-54
2022/07/14 06:07:54;;;;;;;17.40;4.32;;;;;;;17.92;74.49;101977.44;4949807;28;20101;-55
2022/07/14 06:10:22;;;;;;;17.63;4.60;;;;;;;17.90;74.07;101976.94;4974513;28;20074;-55
2022/07/14 06:12:53;;;;;;;14.23;4.20;;;;;;;17.91;73.87;101978.56;4951941;28;20051;-55
2022/07/14 06:15:23;;;;;;;15.95;4.30;;;;;;;17.91;74.24;101970.31;4953762;28;20470;-56
2022/07/14 06:17:50;;;;;;;17.70;4.75;;;;;;;18.00;74.04;101966.63;4937663;29;20118;-56
2022/07/14 06:20:18;;;;;;;19.38;4.72;;;;;;;18.09;73.85;101964.88;4950529;28;20039;-58
2022/07/14 06:22:46;;;;;;;14.82;4.95;;;;;;;18.18;73.14;101962.28;4953177;28;20067;-57
2022/07/14 06:25:14;;;;;;;15.32;5.05;;;;;;;18.20;73.77;101960.06;4955663;28;20113;-58
2022/07/14 06:27:43;;;;;;;17.40;4.88;;;;;;;18.23;73.48;101958.66;4942628;28;20039;-57
2022/07/14 06:30:12;;;;;;;21.60;5.85;;;;;;;18.29;73.15;101963.03;4954359;28;20059;-58
2022/07/14 06:32:41;;;;;;;16.65;6.15;;;;;;;18.34;72.73;101970.44;4945392;28;20113;-57
2022/07/14 06:35:13;;;;;;;18.52;5.30;;;;;;;18.36;72.54;101968.22;4953583;28;20043;-53
2022/07/14 06:37:41;;;;;;;25.05;6.63;;;;;;;18.36;71.94;101969.03;4956826;28;20042;-56
2022/07/14 06:40:10;;;;;;;18.35;5.55;;;;;;;18.36;71.47;101970.97;4953438;29;20062;-53
2022/07/14 06:42:43;;;;;;;13.52;4.13;;;;;;;18.22;70.67;101965.31;4940313;28;20050;-51
2022/07/14 06:45:15;;;;;;;16.30;4.97;;;;;;;18.09;71.86;101964.06;4953471;28;20153;-54
2022/07/14 06:47:44;;;;;;;15.55;6.10;;;;;;;18.12;72.33;101976.47;4938617;28;20054;-53
2022/07/14 06:50:12;;;;;;;16.23;4.70;;;;;;;18.12;72.14;101985.53;4956573;28;20057;-52
2022/07/14 06:52:40;;;;;;;16.88;4.88;;;;;;;18.16;72.54;101981.09;4964463;28;20075;-51
2022/07/14 06:55:08;;;;;;;13.20;3.72;;;;;;;18.19;72.26;101980.50;4970799;28;20045;-54
2022/07/14 06:57:36;;;;;;;16.55;4.43;;;;;;;18.24;71.68;101974.94;4949324;28;20057;-51
2022/07/14 07:00:08;;;;;;;17.75;4.65;;;;;;;18.19;71.28;101975.00;4973266;28;20035;-52
2022/07/14 07:02:36;;;;;;;16.27;4.25;;;;;;;18.22;71.27;101968.88;4949364;29;20074;-55
2022/07/14 07:07:57;;;;;;;13.55;3.60;;;;;;;18.23;71.18;101970.56;4977550;28;20050;-48
2022/07/14 07:10:25;;;;;;;16.73;3.78;;;;;;;18.26;71.38;101960.88;4947885;28;20077;-50
2022/07/14 07:12:53;;;;;;;17.40;3.67;;;;;;;18.24;71.12;101961.16;4971944;28;20049;-54
2022/07/14 07:15:22;;;;;;;12.98;3.78;;;;;;;18.21;71.20;101958.97;4955441;28;20058;-50
2022/07/14 07:17:49;;;;;;;13.50;4.03;;;;;;;18.27;71.35;101956.97;4977558;28;20120;-51
2022/07/14 07:20:17;;;;;;;16.58;3.97;;;;;;;18.38;70.74;101964.03;4968392;28;20058;-50
2022/07/14 07:22:44;;;;;;;12.35;4.15;;;;;;;18.44;70.25;101962.03;4969327;28;20039;-50
2022/07/14 07:25:12;;;;;;;12.35;3.70;;;;;;;18.52;70.38;101961.41;4956661;29;20088;-50
2022/07/14 07:27:40;;;;;;;12.32;3.55;;;;;;;18.58;69.10;101971.25;4975105;28;20046;-50
2022/07/14 07:30:08;;;;;;;13.27;3.75;;;;;;;18.64;69.48;101961.81;4954398;29;20062;-48
2022/07/14 07:32:36;;;;;;;16.30;4.18;;;;;;;18.59;69.42;101961.03;4962239;28;20054;-53
2022/07/14 07:35:05;;;;;;;14.13;3.88;;;;;;;18.55;69.71;101960.81;4977370;28;20043;-51
2022/07/14 07:37:33;;;;;;;18.75;4.22;;;;;;;18.53;68.75;101971.31;4976888;28;20054;-53
2022/07/14 07:40:00;;;;;;;13.07;4.25;;;;;;;18.47;69.33;101962.28;4976805;28;20050;-49
2022/07/14 07:42:28;;;;;;;15.63;3.97;;;;;;;18.47;69.72;101961.44;4970724;28;20043;-51
2022/07/14 07:44:57;;;;;;;12.52;3.35;;;;;;;18.46;69.39;101962.56;4972105;28;20063;-51
2022/07/14 07:47:25;;;;;;;17.00;3.90;;;;;;;18.51;69.04;101948.69;4976904;28;20549;-50
2022/07/14 07:49:53;;;;;;;12.82;3.60;;;;;;;18.60;68.55;101944.19;4976821;28;20089;-53
2022/07/14 07:52:22;;;;;;;13.57;3.80;;;;;;;18.65;68.64;101943.31;4952554;29;20418;-48
2022/07/14 07:54:50;;;;;;;12.93;3.72;;;;;;;18.62;69.63;101939.19;4973979;28;20414;-49
2022/07/14 07:57:38;;;;;;;14.55;4.00;;;;;;;18.57;69.88;101942.03;4966923;28;20043;-51
2022/07/14 08:00:07;;;;;;;12.38;3.65;;;;;;;18.56;69.75;101932.06;4958156;28;20053;-50
2022/07/14 08:02:52;;;;;;;14.65;3.67;;;;;;;18.58;67.80;101932.59;4970344;28;20062;-51
2022/07/14 08:05:23;;;;;;;13.93;3.75;;;;;;;18.61;67.16;101932.00;4969704;28;20050;-49
2022/07/14 08:08:11;;;;;;;14.88;3.38;;;;;;;18.64;67.49;101925.91;4955984;29;20047;-49
2022/07/14 08:10:39;;;;;;;15.20;3.80;;;;;;;18.68;67.09;101921.44;4945516;28;20129;-48
2022/07/14 08:13:08;;;;;;;15.77;3.47;;;;;;;18.61;66.57;101914.63;4968149;28;20174;-49
2022/07/14 08:15:36;;;;;;;13.55;4.28;;;;;;;18.59;67.43;101912.19;4976364;28;20528;-50
2022/07/14 08:18:04;;;;;;;15.15;3.60;;;;;;;18.58;66.80;101910.53;4940002;29;20049;-47
2022/07/14 08:20:33;;;;;;;10.73;3.28;;;;;;;18.65;64.49;101916.50;4954360;28;20039;-47
2022/07/14 08:23:01;;;;;;;10.85;3.42;;;;;;;18.72;64.59;101916.97;4968782;28;20046;-48
2022/07/14 08:25:30;;;;;;;8.63;3.05;;;;;;;18.84;64.96;101915.75;4974167;28;20043;-46
2022/07/14 08:27:57;;;;;;;16.17;3.67;;;;;;;18.89;64.82;101921.19;4963164;28;20070;-49
2022/07/14 08:30:25;;;;;;;11.18;3.20;;;;;;;18.94;65.24;101904.56;4975636;28;20074;-49
2022/07/14 08:32:53;;;;;;;12.50;3.00;;;;;;;18.98;64.82;101905.63;4957010;28;20066;-47
2022/07/14 08:35:23;;;;;;;14.85;3.42;;;;;;;19.02;63.98;101908.59;4960234;28;20040;-49
2022/07/14 08:37:52;;;;;;;15.40;4.07;;;;;;;19.00;62.29;101911.66;4973857;28;20066;-49
2022/07/14 08:40:22;;;;;;;13.13;3.80;;;;;;;18.95;62.29;101903.41;4955846;29;20039;-49
2022/07/14 08:42:53;;;;;;;11.50;3.25;;;;;;;18.98;62.58;101900.09;4972423;28;20122;-49
2022/07/14 08:45:24;;;;;;;13.20;3.35;;;;;;;19.10;62.01;101905.97;4968330;28;20458;-49
2022/07/14 08:47:52;;;;;;;13.88;3.15;;;;;;;19.12;60.55;101895.44;4968264;28;20055;-50
2022/07/14 08:50:25;;;;;;;16.48;3.63;;;;;;;19.16;60.78;101895.66;4975897;28;20535;-50
2022/07/14 08:52:52;;;;;;;12.65;3.30;;;;;;;19.19;61.15;101892.28;4954937;29;20071;-49
2022/07/14 08:55:21;;;;;;;13.43;3.50;;;;;;;19.23;60.34;101892.53;4957963;28;20045;-46
2022/07/14 08:57:49;;;;;;;11.52;2.90;;;;;;;19.31;59.69;101889.06;4975756;28;20055;-46
2022/07/14 09:00:18;;;;;;;15.07;2.92;;;;;;;19.37;58.00;101896.97;4974580;28;20042;-47
2022/07/14 09:02:55;;;;;;;11.88;3.13;;;;;;;19.35;57.55;101888.16;4958137;28;20067;-48
2022/07/14 09:05:43;;;;;;;10.50;2.92;;;;;;;19.35;57.74;101898.41;4962850;28;20505;-51
2022/07/14 09:08:13;;;;;;;9.48;2.40;;;;;;;19.42;59.14;101895.25;4963547;28;20166;-50
2022/07/14 09:10:44;;;;;;;10.32;3.13;;;;;;;19.46;58.84;101886.06;4961920;28;20031;-49
2022/07/14 09:13:33;;;;;;;9.73;3.00;;;;;;;19.46;58.12;101887.97;4954835;28;20098;-45
2022/07/14 09:16:20;;;;;;;9.82;2.70;;;;;;;19.47;58.11;101867.53;4975269;28;20564;-47
2022/07/14 09:19:07;;;;;;;12.38;2.95;;;;;;;19.52;58.05;101889.56;4954334;28;20573;-51
2022/07/14 09:21:37;;;;;;;11.82;3.03;;;;;;;19.53;58.19;101880.13;4955159;29;20047;-50
2022/07/14 09:24:09;;;;;;;13.93;3.13;;;;;;;19.59;58.42;101879.75;4962403;28;20122;-50
2022/07/14 09:26:46;;;;;;;9.45;2.80;;;;;;;19.69;57.99;101883.50;4944246;29;20049;-49
2022/07/14 09:29:21;;;;;;;;;;;;;;;19.76;58.44;101878.38;4971745;28;20462;-48
2022/07/14 09:31:48;;;;;;;9.37;2.60;;;;;;;19.86;57.18;101874.59;4954398;29;19922;-53
2022/07/14 09:34:27;;;;;;;9.52;2.90;;;;;;;19.92;56.70;101882.50;4953894;28;20058;-47
2022/07/14 09:37:11;;;;;;;12.38;2.78;;;;;;;19.98;56.53;101875.72;4971204;28;20063;-51
2022/07/14 09:39:56;;;;;;;11.02;2.78;;;;;;;20.04;56.70;101878.44;4974745;28;20039;-51
2022/07/14 09:42:50;;;;;;;8.63;2.47;;;;;;;20.07;55.78;101872.28;4974711;28;20038;-53
2022/07/14 09:45:20;;;;;;;10.93;2.75;;;;;;;20.07;54.78;101878.63;4950146;28;20137;-49
2022/07/14 09:47:53;;;;;;;13.05;2.75;;;;;;;20.03;54.45;101876.78;4974062;28;20050;-50
2022/07/14 09:50:47;;;;;;;8.30;2.40;;;;;;;20.05;54.59;101871.75;4963762;28;20417;-49
2022/07/14 09:53:24;;;;;;;10.60;2.65;;;;;;;20.11;53.99;101873.31;4951791;29;20406;-50
2022/07/14 09:56:11;;;;;;;10.30;2.55;;;;;;;20.22;53.83;101864.47;4968080;28;20561;-49
2022/07/14 09:58:51;;;;;;;7.80;2.45;;;;;;;20.28;54.47;101856.91;4973042;28;20054;-50
2022/07/14 10:01:20;;;;;;;9.40;2.40;;;;;;;20.32;52.98;101871.75;4951357;28;20043;-49
2022/07/14 10:03:54;;;;;;;8.77;2.60;;;;;;;20.33;51.11;101875.34;4945181;28;20053;-45
2022/07/14 10:06:22;;;;;;;16.48;3.00;;;;;;;20.35;51.52;101873.91;4961152;28;20039;-45
2022/07/14 10:09:02;;;;;;;7.28;2.17;;;;;;;20.40;51.46;101873.81;4975019;28;20421;-50
2022/07/14 10:11:30;;;;;;;14.07;5.82;;;;;;;20.43;51.22;101873.19;4953453;28;20058;-52
2022/07/14 10:13:59;;;;;;;8.40;2.70;;;;;;;20.52;50.55;101878.00;4954427;28;20042;-50
2022/07/14 10:16:32;;;;;;;8.68;3.47;;;;;;;20.52;52.26;101876.03;4950393;28;20050;-48
2022/07/14 10:19:02;;;;;;;9.00;3.00;;;;;;;20.51;51.79;101879.13;4970684;28;20490;-48
2022/07/14 10:21:39;;;;;;;10.95;2.90;;;;;;;20.51;50.92;101881.88;4973252;28;20077;-49
2022/07/14 10:24:08;;;;;;;6.70;2.30;;;;;;;20.54;50.96;101881.25;4974077;28;20050;-48
2022/07/14 10:26:37;;;;;;;11.48;3.00;;;;;;;20.59;50.52;101889.50;4973662;28;20038;-49
2022/07/14 10:29:07;;;;;;;7.75;2.25;;;;;;;20.60;51.15;101880.88;4957298;28;20538;-48
2022/07/14 10:31:49;;;;;;;7.82;2.33;;;;;;;20.60;49.72;101889.19;4949672;28;20043;-48
2022/07/14 10:34:48;;;;;;;11.10;2.67;;;;;;;20.61;48.84;101882.53;4961170;28;20134;-48
2022/07/14 10:37:30;;;;;;;10.50;2.50;;;;;;;20.68;46.60;101882.09;4974554;28;20050;-53
2022/07/14 10:40:12;;;;;;;9.82;2.25;;;;;;;20.72;46.77;101883.13;4973917;28;20128;-51
2022/07/14 10:42:54;;;;;;;6.70;2.13;;;;;;;20.74;47.93;101891.94;4956004;28;20090;-50
2022/07/14 10:45:22;;;;;;;7.97;2.63;;;;;;;20.75;47.85;101893.56;4937704;29;20055;-50
2022/07/14 10:47:52;;;;;;;5.63;2.20;;;;;;;20.76;47.43;101886.09;4953000;28;20573;-50
2022/07/14 10:50:22;;;;;;;10.15;2.60;;;;;;;20.74;47.12;101885.59;4973691;28;20498;-49
2022/07/14 10:52:52;;;;;;;9.93;2.55;;;;;;;20.73;46.90;101890.28;4968084;28;20055;-49
2022/07/14 10:55:22;;;;;;;5.22;1.90;;;;;;;20.73;47.42;101883.94;4972768;28;20053;-48
2022/07/14 10:57:59;;;;;;;10.10;2.60;;;;;;;20.81;47.72;101880.44;4973884;28;20046;-50
2022/07/14 11:00:44;;;;;;;7.32;2.20;;;;;;;20.90;47.24;101867.50;4971764;28;20045;-46
2022/07/14 11:03:27;;;;;;;9.43;2.10;;;;;;;20.99;47.29;101873.09;4973537;28;20043;-47
2022/07/14 11:06:05;;;;;;;8.95;2.40;;;;;;;21.02;47.58;101876.06;4973704;28;20075;-51
2022/07/14 11:09:22;;;;;;;13.07;3.03;;;;;;;20.99;47.15;101875.84;4973591;28;20038;-49
2022/07/14 11:12:28;;;;;;;5.82;2.22;;;;;;;20.99;46.95;101867.53;4970446;28;20512;-49
2022/07/14 11:14:55;;;;;;;8.27;2.50;;;;;;;21.06;46.97;101873.47;4917134;29;20058;-50
2022/07/14 11:17:41;;;;;;;6.82;2.17;;;;;;;21.14;46.93;101878.28;4932988;29;20455;-54
2022/07/14 11:20:10;;;;;;;9.02;2.60;;;;;;;21.23;46.55;101884.69;4956198;28;20061;-49
2022/07/14 11:22:38;;;;;;;9.73;2.65;;;;;;;21.22;46.39;101885.84;4955966;28;20046;-53
2022/07/14 11:25:06;;;;;;;8.32;2.60;;;;;;;21.21;46.94;101880.59;4973652;28;20510;-51
2022/07/14 11:27:47;;;;;;;8.88;2.50;;;;;;;21.27;47.08;101882.94;4973633;28;20042;-55
2022/07/14 11:30:29;;;;;;;7.95;2.60;;;;;;;21.31;46.91;101876.75;4955241;28;20051;-53
2022/07/14 11:33:03;;;;;;;13.60;3.15;;;;;;;21.36;46.76;101888.56;4970039;28;20054;-54
2022/07/14 11:38:37;;;;;;;8.75;2.67;;;;;;;21.38;46.32;101882.66;4960925;28;20050;-55
2022/07/14 11:41:10;;;;;;;11.73;2.92;;;;;;;21.36;46.18;101873.84;4972434;28;20058;-53
2022/07/14 11:43:39;;;;;;;10.23;3.10;;;;;;;21.40;46.80;101869.34;4973528;28;20039;-52
2022/07/14 11:46:26;;;;;;;7.25;2.75;;;;;;;21.53;47.37;101876.78;4953631;28;20051;-47
2022/07/14 11:48:55;;;;;;;11.55;3.10;;;;;;;21.55;45.86;101888.38;4973577;28;20493;-50